CFG101 UBBB-EDDM
Flight info
| Callsign | CFG101 |
|---|---|
| Flight time | N/A |
| Altitude | 32000 |
| Route | RASAM DCT ADEKI N644 TETRO M10 SARPI UM10 GOKPA UL746 ODERO L746 LUGEB DCT SOKRU DCT DEGET DCT GILEP DCT BEGLA DCT BAGSI DCT MATIG DCT AMADI Q113 NAPSA NAPSA4A |
| Aircraft | A321/M-SDE3FGHIRWY/LB1 |
Departure
| Time | 2026-04-30 12:27 |
|---|---|
| Airport | Heydar Aliyev International Airport (UBBB) |
Arrival
| Time | N/A |
|---|---|
| Airport | Munich Airport (EDDM) |
| Time | Latitude | Longitude | Altitude | Speed | Heading |
|---|---|---|---|---|---|
| 2026-04-30 11:59 | 40.46551 | 50.05091 | 9 ft | 0 kts | 65° |
| 2026-04-30 12:17 | 40.46543 | 50.05067 | 9 ft | 4 kts | 70° |
| 2026-04-30 12:17 | 40.46535 | 50.05034 | 10 ft | 4 kts | 77° |
| 2026-04-30 12:18 | 40.46531 | 50.04999 | 12 ft | 4 kts | 85° |
| 2026-04-30 12:18 | 40.46529 | 50.04964 | 11 ft | 4 kts | 93° |
| 2026-04-30 12:18 | 40.46533 | 50.04929 | 12 ft | 4 kts | 108° |
| 2026-04-30 12:18 | 40.46544 | 50.04901 | 11 ft | 4 kts | 147° |
| 2026-04-30 12:19 | 40.46559 | 50.04898 | 10 ft | 4 kts | 211° |
| 2026-04-30 12:19 | 40.46583 | 50.04915 | 10 ft | 4 kts | 206° |
| 2026-04-30 12:19 | 40.46604 | 50.04930 | 10 ft | 1 kts | 208° |
| 2026-04-30 12:19 | 40.46605 | 50.04930 | 10 ft | 0 kts | 208° |
| 2026-04-30 12:21 | 40.46600 | 50.04927 | 10 ft | 4 kts | 208° |
| 2026-04-30 12:21 | 40.46556 | 50.04878 | 11 ft | 9 kts | 250° |
| 2026-04-30 12:21 | 40.46508 | 50.04811 | 9 ft | 14 kts | 209° |
| 2026-04-30 12:22 | 40.46425 | 50.04755 | 9 ft | 13 kts | 207° |
| 2026-04-30 12:22 | 40.46348 | 50.04704 | 9 ft | 12 kts | 208° |
| 2026-04-30 12:22 | 40.46275 | 50.04661 | 9 ft | 11 kts | 186° |
| 2026-04-30 12:22 | 40.46210 | 50.04693 | 9 ft | 10 kts | 148° |
| 2026-04-30 12:23 | 40.46158 | 50.04740 | 9 ft | 9 kts | 144° |
| 2026-04-30 12:23 | 40.46098 | 50.04792 | 9 ft | 12 kts | 148° |
| 2026-04-30 12:23 | 40.46025 | 50.04826 | 9 ft | 11 kts | 190° |
| 2026-04-30 12:23 | 40.45958 | 50.04794 | 9 ft | 10 kts | 204° |
| 2026-04-30 12:24 | 40.45893 | 50.04759 | 9 ft | 11 kts | 200° |
| 2026-04-30 12:24 | 40.45798 | 50.04710 | 9 ft | 17 kts | 202° |
| 2026-04-30 12:24 | 40.45721 | 50.04617 | 9 ft | 15 kts | 249° |
| 2026-04-30 12:24 | 40.45688 | 50.04491 | 9 ft | 15 kts | 248° |
| 2026-04-30 12:25 | 40.45650 | 50.04366 | 11 ft | 15 kts | 250° |
| 2026-04-30 12:25 | 40.45628 | 50.04238 | 9 ft | 15 kts | 259° |
| 2026-04-30 12:25 | 40.45642 | 50.04124 | 9 ft | 9 kts | 338° |
| 2026-04-30 12:25 | 40.45645 | 50.04124 | 9 ft | 0 kts | 342° |
| 2026-04-30 12:26 | 40.45984 | 50.04015 | 11 ft | 93 kts | 346° |
| 2026-04-30 12:26 | 40.46831 | 50.03745 | 8 ft | 154 kts | 346° |
| 2026-04-30 12:26 | 40.47952 | 50.03386 | 479 ft | 167 kts | 346° |
| 2026-04-30 12:27 | 40.49074 | 50.03018 | 1465 ft | 167 kts | 346° |
| 2026-04-30 12:27 | 40.50209 | 50.02636 | 2333 ft | 166 kts | 346° |
| 2026-04-30 12:27 | 40.51336 | 50.02342 | 3042 ft | 165 kts | 348° |
| 2026-04-30 12:27 | 40.52469 | 50.02114 | 3659 ft | 167 kts | 346° |
| 2026-04-30 12:28 | 40.53617 | 50.01764 | 4181 ft | 173 kts | 343° |
| 2026-04-30 12:28 | 40.54803 | 50.01353 | 4695 ft | 180 kts | 341° |
| 2026-04-30 12:28 | 40.56049 | 50.00894 | 5077 ft | 195 kts | 342° |
| 2026-04-30 12:28 | 40.57452 | 50.00419 | 5319 ft | 221 kts | 343° |
| 2026-04-30 12:29 | 40.58985 | 49.99832 | 5710 ft | 244 kts | 334° |
| 2026-04-30 12:29 | 40.60445 | 49.98544 | 6238 ft | 261 kts | 314° |
| 2026-04-30 12:29 | 40.61489 | 49.96565 | 7024 ft | 268 kts | 293° |
| 2026-04-30 12:29 | 40.61932 | 49.94174 | 7730 ft | 274 kts | 274° |
| 2026-04-30 12:30 | 40.61954 | 49.91661 | 7952 ft | 274 kts | 270° |
| 2026-04-30 12:30 | 40.61938 | 49.89131 | 8378 ft | 277 kts | 269° |
| 2026-04-30 12:30 | 40.61914 | 49.86597 | 9343 ft | 278 kts | 269° |
| 2026-04-30 12:30 | 40.61889 | 49.84036 | 10220 ft | 281 kts | 269° |
| 2026-04-30 12:31 | 40.61865 | 49.81426 | 10662 ft | 300 kts | 270° |
| 2026-04-30 12:31 | 40.61841 | 49.78573 | 10900 ft | 324 kts | 270° |
| 2026-04-30 12:31 | 40.61820 | 49.75536 | 11344 ft | 338 kts | 270° |
| 2026-04-30 12:31 | 40.61797 | 49.72417 | 12073 ft | 342 kts | 270° |
| 2026-04-30 12:32 | 40.61772 | 49.69265 | 12866 ft | 346 kts | 270° |
| 2026-04-30 12:32 | 40.61745 | 49.66091 | 13683 ft | 348 kts | 270° |
| 2026-04-30 12:32 | 40.61716 | 49.62888 | 14432 ft | 351 kts | 270° |
| 2026-04-30 12:32 | 40.61686 | 49.59663 | 15154 ft | 354 kts | 270° |
| 2026-04-30 12:33 | 40.61655 | 49.56410 | 15887 ft | 356 kts | 270° |
| 2026-04-30 12:33 | 40.61623 | 49.53185 | 16600 ft | 359 kts | 270° |
| 2026-04-30 12:33 | 40.61592 | 49.49888 | 17315 ft | 361 kts | 270° |
| 2026-04-30 12:33 | 40.61563 | 49.46575 | 18011 ft | 364 kts | 270° |
| 2026-04-30 12:34 | 40.61532 | 49.43234 | 18665 ft | 366 kts | 269° |
| 2026-04-30 12:34 | 40.61498 | 49.39872 | 19245 ft | 369 kts | 270° |
| 2026-04-30 12:34 | 40.61460 | 49.36486 | 19818 ft | 371 kts | 270° |
| 2026-04-30 12:34 | 40.61418 | 49.33076 | 20400 ft | 374 kts | 270° |
| 2026-04-30 12:35 | 40.61376 | 49.29647 | 20973 ft | 376 kts | 270° |
| 2026-04-30 12:35 | 40.61333 | 49.26193 | 21542 ft | 379 kts | 270° |
| 2026-04-30 12:35 | 40.61293 | 49.22711 | 22105 ft | 382 kts | 271° |
| 2026-04-30 12:35 | 40.61536 | 49.19276 | 22641 ft | 384 kts | 281° |
| 2026-04-30 12:36 | 40.62263 | 49.15887 | 23181 ft | 386 kts | 290° |
| 2026-04-30 12:36 | 40.63243 | 49.12578 | 23732 ft | 389 kts | 291° |
| 2026-04-30 12:36 | 40.64228 | 49.09254 | 24183 ft | 391 kts | 291° |
| 2026-04-30 12:36 | 40.65214 | 49.05904 | 24655 ft | 393 kts | 290° |
| 2026-04-30 12:37 | 40.66201 | 49.02534 | 25113 ft | 395 kts | 290° |
| 2026-04-30 12:37 | 40.67187 | 48.99146 | 25560 ft | 398 kts | 290° |
| 2026-04-30 12:37 | 40.68178 | 48.95737 | 26009 ft | 400 kts | 290° |
| 2026-04-30 12:37 | 40.69159 | 48.92351 | 26451 ft | 402 kts | 290° |
| 2026-04-30 12:38 | 40.70158 | 48.88912 | 26891 ft | 404 kts | 290° |
| 2026-04-30 12:38 | 40.71163 | 48.85445 | 27328 ft | 406 kts | 290° |
| 2026-04-30 12:38 | 40.72167 | 48.81970 | 27756 ft | 408 kts | 290° |
| 2026-04-30 12:38 | 40.73180 | 48.78457 | 28178 ft | 410 kts | 290° |
| 2026-04-30 12:39 | 40.74194 | 48.74943 | 28583 ft | 412 kts | 290° |
| 2026-04-30 12:39 | 40.75214 | 48.71405 | 28993 ft | 414 kts | 290° |
| 2026-04-30 12:39 | 40.76238 | 48.67849 | 29398 ft | 416 kts | 290° |
| 2026-04-30 12:39 | 40.77249 | 48.64329 | 29784 ft | 418 kts | 290° |
| 2026-04-30 12:40 | 40.78281 | 48.60739 | 30181 ft | 419 kts | 290° |
| 2026-04-30 12:40 | 40.79314 | 48.57144 | 30633 ft | 418 kts | 290° |
| 2026-04-30 12:40 | 40.80338 | 48.53571 | 31097 ft | 416 kts | 290° |
| 2026-04-30 12:40 | 40.81359 | 48.49998 | 31555 ft | 415 kts | 289° |
| 2026-04-30 12:41 | 40.82375 | 48.46437 | 31983 ft | 415 kts | 290° |
| 2026-04-30 12:41 | 40.83391 | 48.42871 | 32127 ft | 413 kts | 289° |
| 2026-04-30 12:41 | 40.85371 | 48.35908 | 32152 ft | 400 kts | 289° |
| 2026-04-30 12:42 | 40.87304 | 48.29086 | 32148 ft | 399 kts | 289° |
| 2026-04-30 12:42 | 40.89249 | 48.22212 | 32147 ft | 399 kts | 289° |
| 2026-04-30 12:43 | 40.91189 | 48.15350 | 32146 ft | 399 kts | 290° |
| 2026-04-30 12:43 | 40.92802 | 48.09642 | 32144 ft | 398 kts | 290° |
| 2026-04-30 12:44 | 40.94729 | 48.02779 | 32137 ft | 398 kts | 289° |
| 2026-04-30 12:44 | 40.96966 | 47.94801 | 32131 ft | 398 kts | 289° |
| 2026-04-30 12:45 | 40.98886 | 47.87928 | 32127 ft | 398 kts | 289° |
| 2026-04-30 12:45 | 41.00473 | 47.82216 | 32129 ft | 398 kts | 289° |
| 2026-04-30 12:46 | 41.02376 | 47.75342 | 32127 ft | 398 kts | 289° |
| 2026-04-30 12:46 | 41.04597 | 47.67332 | 32130 ft | 398 kts | 289° |
| 2026-04-30 12:47 | 41.06196 | 47.61568 | 32132 ft | 398 kts | 290° |
| 2026-04-30 12:47 | 41.08086 | 47.54720 | 32133 ft | 398 kts | 289° |
| 2026-04-30 12:48 | 41.09981 | 47.47823 | 32136 ft | 398 kts | 289° |
| 2026-04-30 12:48 | 41.11871 | 47.40911 | 32143 ft | 399 kts | 289° |
| 2026-04-30 12:49 | 41.13741 | 47.34048 | 32143 ft | 398 kts | 289° |
| 2026-04-30 12:49 | 41.15623 | 47.27143 | 32147 ft | 398 kts | 290° |
| 2026-04-30 12:50 | 41.17507 | 47.20233 | 32154 ft | 398 kts | 289° |
| 2026-04-30 12:50 | 41.19384 | 47.13306 | 32154 ft | 399 kts | 289° |
| 2026-04-30 12:51 | 41.21257 | 47.06380 | 32164 ft | 398 kts | 289° |
| 2026-04-30 12:51 | 41.23113 | 46.99503 | 32168 ft | 398 kts | 289° |
| 2026-04-30 12:52 | 41.24974 | 46.92575 | 32167 ft | 398 kts | 289° |
| 2026-04-30 12:52 | 41.26833 | 46.85644 | 32174 ft | 398 kts | 289° |
| 2026-04-30 12:53 | 41.28682 | 46.78723 | 32176 ft | 398 kts | 289° |
| 2026-04-30 12:53 | 41.30149 | 46.71652 | 32178 ft | 397 kts | 281° |
| 2026-04-30 12:54 | 41.31149 | 46.64488 | 32176 ft | 396 kts | 281° |
| 2026-04-30 12:54 | 41.32159 | 46.57277 | 32174 ft | 396 kts | 281° |
| 2026-04-30 12:55 | 41.33165 | 46.50080 | 32169 ft | 396 kts | 281° |
| 2026-04-30 12:55 | 41.34158 | 46.42926 | 32157 ft | 395 kts | 281° |
| 2026-04-30 12:56 | 41.35150 | 46.35737 | 32152 ft | 395 kts | 281° |
| 2026-04-30 12:56 | 41.36131 | 46.28557 | 32138 ft | 394 kts | 281° |
| 2026-04-30 12:57 | 41.37116 | 46.21368 | 32133 ft | 394 kts | 281° |
| 2026-04-30 12:57 | 41.38090 | 46.14186 | 32126 ft | 394 kts | 281° |
| 2026-04-30 12:58 | 41.39058 | 46.07055 | 32123 ft | 394 kts | 281° |
| 2026-04-30 12:58 | 41.40030 | 45.99864 | 32116 ft | 394 kts | 281° |
| 2026-04-30 12:59 | 41.40998 | 45.92670 | 32114 ft | 395 kts | 281° |
| 2026-04-30 12:59 | 41.41953 | 45.85479 | 32105 ft | 395 kts | 280° |
| 2026-04-30 13:00 | 41.42896 | 45.78325 | 32101 ft | 395 kts | 280° |
| 2026-04-30 13:00 | 41.43849 | 45.71114 | 32095 ft | 395 kts | 280° |
| 2026-04-30 13:01 | 41.44801 | 45.63903 | 32086 ft | 395 kts | 280° |
| 2026-04-30 13:01 | 41.45743 | 45.56696 | 32083 ft | 395 kts | 280° |
| 2026-04-30 13:02 | 41.46673 | 45.49527 | 32076 ft | 395 kts | 280° |
| 2026-04-30 13:02 | 41.47607 | 45.42294 | 32074 ft | 396 kts | 280° |
| 2026-04-30 13:03 | 41.48517 | 45.35065 | 32079 ft | 396 kts | 279° |
| 2026-04-30 13:03 | 41.49174 | 45.27775 | 32082 ft | 396 kts | 276° |
| 2026-04-30 13:04 | 41.49699 | 45.20519 | 32081 ft | 395 kts | 276° |
| 2026-04-30 13:04 | 41.50249 | 45.13234 | 32083 ft | 395 kts | 277° |
| 2026-04-30 13:05 | 41.50841 | 45.05952 | 32090 ft | 394 kts | 277° |
| 2026-04-30 13:06 | 41.51721 | 44.95042 | 32089 ft | 394 kts | 276° |
| 2026-04-30 13:06 | 41.52290 | 44.87811 | 32087 ft | 394 kts | 276° |
| 2026-04-30 13:07 | 41.52861 | 44.80534 | 32085 ft | 394 kts | 276° |
| 2026-04-30 13:07 | 41.53426 | 44.73265 | 32085 ft | 394 kts | 276° |
| 2026-04-30 13:08 | 41.53987 | 44.66003 | 32082 ft | 394 kts | 276° |
| 2026-04-30 13:08 | 41.54541 | 44.58779 | 32085 ft | 394 kts | 276° |
| 2026-04-30 13:09 | 41.55089 | 44.51513 | 32083 ft | 393 kts | 276° |
| 2026-04-30 13:09 | 41.55636 | 44.44254 | 32090 ft | 393 kts | 276° |
| 2026-04-30 13:10 | 41.56180 | 44.36991 | 32097 ft | 393 kts | 276° |
| 2026-04-30 13:10 | 41.56712 | 44.29778 | 32097 ft | 393 kts | 276° |
| 2026-04-30 13:11 | 41.57238 | 44.22509 | 32103 ft | 394 kts | 275° |
| 2026-04-30 13:11 | 41.57796 | 44.15248 | 32103 ft | 393 kts | 276° |
| 2026-04-30 13:12 | 41.58378 | 44.08012 | 32106 ft | 392 kts | 276° |
| 2026-04-30 13:12 | 41.58944 | 44.00778 | 32111 ft | 391 kts | 276° |
| 2026-04-30 13:13 | 41.59772 | 43.90029 | 32112 ft | 390 kts | 276° |
| 2026-04-30 13:14 | 41.60589 | 43.79222 | 32111 ft | 389 kts | 276° |
| 2026-04-30 13:14 | 41.61397 | 43.68436 | 32112 ft | 389 kts | 275° |
| 2026-04-30 13:15 | 41.62184 | 43.57720 | 32104 ft | 388 kts | 275° |
| 2026-04-30 13:16 | 41.62705 | 43.50560 | 32096 ft | 387 kts | 275° |
| 2026-04-30 13:16 | 41.63225 | 43.43451 | 32080 ft | 387 kts | 275° |
| 2026-04-30 13:17 | 41.64004 | 43.32715 | 32081 ft | 387 kts | 275° |
| 2026-04-30 13:18 | 41.64767 | 43.21998 | 32069 ft | 386 kts | 275° |
| 2026-04-30 13:18 | 41.65501 | 43.11452 | 32062 ft | 386 kts | 275° |
| 2026-04-30 13:19 | 41.65999 | 43.04318 | 32075 ft | 385 kts | 275° |
| 2026-04-30 13:19 | 41.66490 | 42.97185 | 32079 ft | 385 kts | 275° |
| 2026-04-30 13:20 | 41.66974 | 42.90051 | 32081 ft | 385 kts | 275° |
| 2026-04-30 13:20 | 41.67015 | 42.82968 | 32074 ft | 385 kts | 265° |
| 2026-04-30 13:21 | 41.66421 | 42.75855 | 32083 ft | 385 kts | 265° |
| 2026-04-30 13:22 | 41.65534 | 42.65194 | 32078 ft | 385 kts | 265° |
| 2026-04-30 13:22 | 41.64653 | 42.54579 | 32085 ft | 384 kts | 265° |
| 2026-04-30 13:23 | 41.63753 | 42.43914 | 32088 ft | 385 kts | 264° |
| 2026-04-30 13:24 | 41.62528 | 42.29716 | 32090 ft | 385 kts | 264° |
| 2026-04-30 13:25 | 41.61307 | 42.15570 | 32097 ft | 384 kts | 264° |
| 2026-04-30 13:26 | 41.59726 | 41.97822 | 32118 ft | 385 kts | 264° |
| 2026-04-30 13:28 | 41.58139 | 41.80082 | 32137 ft | 385 kts | 264° |
| 2026-04-30 13:28 | 41.57169 | 41.69499 | 32145 ft | 385 kts | 264° |
| 2026-04-30 13:29 | 41.55858 | 41.55314 | 32139 ft | 385 kts | 263° |
| 2026-04-30 13:31 | 41.55320 | 41.37606 | 32134 ft | 385 kts | 274° |
| 2026-04-30 13:32 | 41.56344 | 41.19794 | 32141 ft | 385 kts | 274° |
| 2026-04-30 13:33 | 41.57143 | 41.05540 | 32132 ft | 385 kts | 273° |
| 2026-04-30 13:34 | 41.57721 | 40.94886 | 32133 ft | 385 kts | 273° |
| 2026-04-30 13:35 | 41.58489 | 40.80622 | 32124 ft | 385 kts | 273° |
| 2026-04-30 13:36 | 41.59240 | 40.66348 | 32130 ft | 385 kts | 273° |
| 2026-04-30 13:36 | 41.59792 | 40.55641 | 32131 ft | 385 kts | 273° |
| 2026-04-30 13:37 | 41.60330 | 40.44984 | 32132 ft | 385 kts | 273° |
| 2026-04-30 13:38 | 41.60861 | 40.34274 | 32126 ft | 385 kts | 273° |
| 2026-04-30 13:39 | 41.61553 | 40.20042 | 32128 ft | 385 kts | 272° |
| 2026-04-30 13:40 | 41.62054 | 40.09326 | 32131 ft | 385 kts | 272° |
| 2026-04-30 13:40 | 41.62388 | 40.02174 | 32132 ft | 385 kts | 272° |
| 2026-04-30 13:41 | 41.62720 | 39.95033 | 32130 ft | 385 kts | 272° |
| 2026-04-30 13:41 | 41.63042 | 39.87884 | 32141 ft | 385 kts | 272° |
| 2026-04-30 13:42 | 41.63359 | 39.80787 | 32135 ft | 385 kts | 272° |
| 2026-04-30 13:42 | 41.63833 | 39.70058 | 32137 ft | 385 kts | 272° |
| 2026-04-30 13:43 | 41.64141 | 39.62906 | 32138 ft | 385 kts | 272° |
| 2026-04-30 13:43 | 41.64445 | 39.55756 | 32144 ft | 385 kts | 272° |
| 2026-04-30 13:44 | 41.64742 | 39.48605 | 32150 ft | 385 kts | 272° |
| 2026-04-30 13:44 | 41.65038 | 39.41445 | 32150 ft | 386 kts | 272° |
| 2026-04-30 13:45 | 41.65469 | 39.30761 | 32152 ft | 385 kts | 272° |
| 2026-04-30 13:46 | 41.65750 | 39.23610 | 32149 ft | 385 kts | 272° |
| 2026-04-30 13:46 | 41.66034 | 39.16462 | 32136 ft | 385 kts | 272° |
| 2026-04-30 13:47 | 41.66308 | 39.09309 | 32138 ft | 385 kts | 272° |
| 2026-04-30 13:47 | 41.66577 | 39.02205 | 32133 ft | 385 kts | 272° |
| 2026-04-30 13:48 | 41.66849 | 38.95049 | 32140 ft | 385 kts | 272° |
| 2026-04-30 13:48 | 41.67110 | 38.87902 | 32141 ft | 385 kts | 272° |
| 2026-04-30 13:49 | 41.67365 | 38.80757 | 32141 ft | 385 kts | 271° |
| 2026-04-30 13:49 | 41.67616 | 38.73610 | 32138 ft | 385 kts | 271° |
| 2026-04-30 13:50 | 41.67858 | 38.66531 | 32146 ft | 385 kts | 271° |
| 2026-04-30 13:50 | 41.68222 | 38.55793 | 32144 ft | 385 kts | 271° |
| 2026-04-30 13:51 | 41.68459 | 38.48638 | 32148 ft | 385 kts | 271° |
| 2026-04-30 13:51 | 41.68693 | 38.41491 | 32147 ft | 385 kts | 271° |
| 2026-04-30 13:52 | 41.68922 | 38.34330 | 32148 ft | 385 kts | 271° |
| 2026-04-30 13:52 | 41.69138 | 38.27222 | 32148 ft | 385 kts | 271° |
| 2026-04-30 13:53 | 41.69363 | 38.20062 | 32150 ft | 385 kts | 271° |
| 2026-04-30 13:53 | 41.69577 | 38.12901 | 32149 ft | 385 kts | 271° |
| 2026-04-30 13:54 | 41.69781 | 38.05733 | 32151 ft | 385 kts | 271° |
| 2026-04-30 13:54 | 41.69983 | 37.98573 | 32147 ft | 385 kts | 271° |
| 2026-04-30 13:55 | 41.70191 | 37.91465 | 32143 ft | 385 kts | 271° |
| 2026-04-30 13:55 | 41.70390 | 37.84304 | 32141 ft | 385 kts | 271° |
| 2026-04-30 13:56 | 41.70579 | 37.77156 | 32138 ft | 385 kts | 271° |
| 2026-04-30 13:56 | 41.70762 | 37.69992 | 32132 ft | 385 kts | 271° |
| 2026-04-30 13:57 | 41.70950 | 37.62836 | 32134 ft | 385 kts | 271° |
| 2026-04-30 13:57 | 41.71132 | 37.55677 | 32130 ft | 385 kts | 271° |
| 2026-04-30 13:58 | 41.71393 | 37.44999 | 32126 ft | 385 kts | 271° |
| 2026-04-30 13:59 | 41.71553 | 37.37833 | 32126 ft | 385 kts | 270° |
| 2026-04-30 13:59 | 41.71708 | 37.30673 | 32125 ft | 385 kts | 270° |
| 2026-04-30 14:00 | 41.71866 | 37.23556 | 32126 ft | 385 kts | 271° |
| 2026-04-30 14:00 | 41.72106 | 37.12795 | 32130 ft | 385 kts | 270° |
| 2026-04-30 14:01 | 41.72252 | 37.05626 | 32127 ft | 385 kts | 270° |
| 2026-04-30 14:01 | 41.72392 | 36.98454 | 32128 ft | 385 kts | 270° |
| 2026-04-30 14:02 | 41.72530 | 36.91293 | 32123 ft | 385 kts | 270° |
| 2026-04-30 14:02 | 41.72675 | 36.84132 | 32122 ft | 385 kts | 270° |
| 2026-04-30 14:03 | 41.72808 | 36.77014 | 32124 ft | 385 kts | 270° |
| 2026-04-30 14:03 | 41.72927 | 36.69843 | 32112 ft | 385 kts | 270° |
| 2026-04-30 14:04 | 41.73039 | 36.62666 | 32122 ft | 385 kts | 270° |
| 2026-04-30 14:04 | 41.73153 | 36.55504 | 32125 ft | 385 kts | 270° |
| 2026-04-30 14:05 | 41.73266 | 36.48377 | 32125 ft | 385 kts | 270° |
| 2026-04-30 14:05 | 41.73372 | 36.41208 | 32124 ft | 385 kts | 270° |
| 2026-04-30 14:06 | 41.73523 | 36.30439 | 32119 ft | 386 kts | 270° |
| 2026-04-30 14:07 | 41.73672 | 36.19716 | 32116 ft | 386 kts | 270° |
| 2026-04-30 14:08 | 41.73808 | 36.08939 | 32114 ft | 386 kts | 270° |
| 2026-04-30 14:08 | 41.73933 | 35.98163 | 32112 ft | 386 kts | 270° |
| 2026-04-30 14:09 | 41.74005 | 35.90981 | 32112 ft | 386 kts | 270° |
| 2026-04-30 14:10 | 41.74108 | 35.80258 | 32109 ft | 386 kts | 270° |
| 2026-04-30 14:10 | 41.74170 | 35.73080 | 32103 ft | 386 kts | 270° |
| 2026-04-30 14:11 | 41.74230 | 35.65980 | 32105 ft | 386 kts | 270° |
| 2026-04-30 14:11 | 41.74293 | 35.58740 | 32104 ft | 386 kts | 270° |
| 2026-04-30 14:12 | 41.74347 | 35.51547 | 32098 ft | 387 kts | 270° |
| 2026-04-30 14:12 | 41.74396 | 35.44348 | 32099 ft | 387 kts | 270° |
| 2026-04-30 14:13 | 41.74445 | 35.37191 | 32095 ft | 387 kts | 270° |
| 2026-04-30 14:13 | 41.74477 | 35.29979 | 32096 ft | 387 kts | 269° |
| 2026-04-30 14:14 | 41.74503 | 35.22773 | 32092 ft | 387 kts | 269° |
| 2026-04-30 14:14 | 41.74534 | 35.15555 | 32098 ft | 388 kts | 269° |
| 2026-04-30 14:15 | 41.74562 | 35.08331 | 32098 ft | 388 kts | 269° |
| 2026-04-30 14:15 | 41.74586 | 35.01110 | 32089 ft | 388 kts | 269° |
| 2026-04-30 14:16 | 41.74605 | 34.93938 | 32077 ft | 388 kts | 269° |
| 2026-04-30 14:16 | 41.74616 | 34.86717 | 32072 ft | 388 kts | 269° |
| 2026-04-30 14:17 | 41.74620 | 34.79485 | 32059 ft | 388 kts | 269° |
| 2026-04-30 14:17 | 41.74620 | 34.72247 | 32046 ft | 389 kts | 269° |
| 2026-04-30 14:18 | 41.74620 | 34.65010 | 32042 ft | 389 kts | 269° |
| 2026-04-30 14:18 | 41.75817 | 34.54360 | 32043 ft | 392 kts | 285° |
| 2026-04-30 14:19 | 41.78281 | 34.43905 | 32050 ft | 392 kts | 285° |
| 2026-04-30 14:20 | 41.79904 | 34.36941 | 32053 ft | 392 kts | 285° |
| 2026-04-30 14:20 | 41.82329 | 34.26534 | 32058 ft | 391 kts | 285° |
| 2026-04-30 14:21 | 41.83943 | 34.19569 | 32065 ft | 391 kts | 285° |
| 2026-04-30 14:22 | 41.86348 | 34.09139 | 32069 ft | 390 kts | 285° |
| 2026-04-30 14:22 | 41.88741 | 33.98730 | 32076 ft | 389 kts | 284° |
| 2026-04-30 14:23 | 41.91870 | 33.85040 | 32082 ft | 387 kts | 284° |
| 2026-04-30 14:24 | 41.94227 | 33.74659 | 32083 ft | 387 kts | 284° |
| 2026-04-30 14:25 | 41.97130 | 33.60747 | 32077 ft | 386 kts | 282° |
| 2026-04-30 14:26 | 41.99067 | 33.50300 | 32078 ft | 386 kts | 282° |
| 2026-04-30 14:27 | 42.01064 | 33.39833 | 32065 ft | 385 kts | 282° |
| 2026-04-30 14:27 | 42.02399 | 33.32862 | 32077 ft | 385 kts | 282° |
| 2026-04-30 14:28 | 42.04381 | 33.22402 | 32083 ft | 385 kts | 282° |
| 2026-04-30 14:28 | 42.05690 | 33.15470 | 32087 ft | 385 kts | 282° |
| 2026-04-30 14:29 | 42.08136 | 33.02714 | 32096 ft | 385 kts | 283° |
| 2026-04-30 14:31 | 42.11960 | 32.84271 | 32092 ft | 384 kts | 283° |
| 2026-04-30 14:31 | 42.14055 | 32.73904 | 32100 ft | 383 kts | 283° |
| 2026-04-30 14:32 | 42.16146 | 32.63525 | 32100 ft | 382 kts | 283° |
| 2026-04-30 14:33 | 42.17536 | 32.56607 | 32103 ft | 382 kts | 283° |
| 2026-04-30 14:33 | 42.19571 | 32.46406 | 32103 ft | 381 kts | 282° |
| 2026-04-30 14:34 | 42.20945 | 32.39502 | 32098 ft | 381 kts | 282° |
| 2026-04-30 14:34 | 42.22312 | 32.32604 | 32096 ft | 381 kts | 282° |
| 2026-04-30 14:35 | 42.24354 | 32.22248 | 32098 ft | 380 kts | 282° |
| 2026-04-30 14:36 | 42.25704 | 32.15350 | 32100 ft | 380 kts | 282° |
| 2026-04-30 14:36 | 42.27038 | 32.08505 | 32099 ft | 379 kts | 282° |
| 2026-04-30 14:37 | 42.28389 | 32.01623 | 32102 ft | 379 kts | 282° |
| 2026-04-30 14:37 | 42.29730 | 31.94746 | 32100 ft | 378 kts | 282° |
| 2026-04-30 14:38 | 42.31062 | 31.87872 | 32100 ft | 378 kts | 282° |
| 2026-04-30 14:38 | 42.32393 | 31.81006 | 32100 ft | 378 kts | 282° |
| 2026-04-30 14:39 | 42.33717 | 31.74136 | 32107 ft | 378 kts | 282° |
| 2026-04-30 14:39 | 42.35026 | 31.67311 | 32111 ft | 378 kts | 282° |
| 2026-04-30 14:40 | 42.37000 | 31.56997 | 32116 ft | 378 kts | 282° |
| 2026-04-30 14:40 | 42.38310 | 31.50122 | 32124 ft | 377 kts | 282° |
| 2026-04-30 14:41 | 42.39395 | 31.44417 | 32127 ft | 377 kts | 282° |
| 2026-04-30 14:41 | 42.40907 | 31.36441 | 32123 ft | 376 kts | 282° |
| 2026-04-30 14:42 | 42.42198 | 31.29591 | 32126 ft | 376 kts | 281° |
| 2026-04-30 14:42 | 42.43260 | 31.23895 | 32125 ft | 375 kts | 282° |
| 2026-04-30 14:43 | 42.44542 | 31.17052 | 32125 ft | 375 kts | 282° |
| 2026-04-30 14:43 | 42.45823 | 31.10208 | 32125 ft | 375 kts | 281° |
| 2026-04-30 14:44 | 42.47093 | 31.03371 | 32126 ft | 374 kts | 281° |
| 2026-04-30 14:44 | 42.48359 | 30.96533 | 32128 ft | 374 kts | 281° |
| 2026-04-30 14:45 | 42.49620 | 30.89708 | 32127 ft | 373 kts | 281° |
| 2026-04-30 14:45 | 42.50866 | 30.82922 | 32126 ft | 373 kts | 281° |
| 2026-04-30 14:46 | 42.52119 | 30.76102 | 32127 ft | 373 kts | 281° |
| 2026-04-30 14:46 | 42.53368 | 30.69273 | 32121 ft | 373 kts | 281° |
| 2026-04-30 14:47 | 42.54607 | 30.62452 | 32123 ft | 373 kts | 281° |
| 2026-04-30 14:47 | 42.55841 | 30.55623 | 32127 ft | 373 kts | 281° |
| 2026-04-30 14:48 | 42.57062 | 30.48825 | 32129 ft | 373 kts | 281° |
| 2026-04-30 14:48 | 42.58285 | 30.41994 | 32129 ft | 373 kts | 281° |
| 2026-04-30 14:49 | 42.59509 | 30.35166 | 32135 ft | 373 kts | 281° |
| 2026-04-30 14:49 | 42.60882 | 30.28375 | 32133 ft | 375 kts | 288° |
| 2026-04-30 14:50 | 42.63725 | 30.22361 | 32138 ft | 386 kts | 306° |
| 2026-04-30 14:50 | 42.65504 | 30.19685 | 32136 ft | 386 kts | 306° |
| 2026-04-30 14:51 | 42.70869 | 30.11518 | 32140 ft | 386 kts | 305° |
| 2026-04-30 14:52 | 42.76213 | 30.03328 | 32144 ft | 385 kts | 305° |
| 2026-04-30 14:52 | 42.81517 | 29.95181 | 32146 ft | 385 kts | 305° |
| 2026-04-30 14:53 | 42.86836 | 29.86995 | 32158 ft | 384 kts | 305° |
| 2026-04-30 14:54 | 42.93881 | 29.76117 | 32160 ft | 383 kts | 305° |
| 2026-04-30 14:55 | 42.99123 | 29.67985 | 32164 ft | 381 kts | 305° |
| 2026-04-30 14:56 | 43.06047 | 29.57218 | 32168 ft | 380 kts | 305° |
| 2026-04-30 14:57 | 43.11272 | 29.49074 | 32171 ft | 379 kts | 305° |
| 2026-04-30 14:58 | 43.18214 | 29.38205 | 32173 ft | 378 kts | 304° |
| 2026-04-30 14:58 | 43.23374 | 29.30090 | 32183 ft | 378 kts | 304° |
| 2026-04-30 15:00 | 43.32001 | 29.16528 | 32196 ft | 377 kts | 304° |
| 2026-04-30 15:01 | 43.38844 | 29.05692 | 32198 ft | 376 kts | 304° |
| 2026-04-30 15:01 | 43.43979 | 28.97535 | 32213 ft | 376 kts | 304° |
| 2026-04-30 15:02 | 43.47396 | 28.92089 | 32212 ft | 376 kts | 304° |
| 2026-04-30 15:03 | 43.55923 | 28.78496 | 32221 ft | 374 kts | 304° |
| 2026-04-30 15:04 | 43.63679 | 28.64424 | 32219 ft | 366 kts | 296° |
| 2026-04-30 15:06 | 43.70325 | 28.49469 | 32225 ft | 366 kts | 295° |
| 2026-04-30 15:07 | 43.75618 | 28.37481 | 32220 ft | 365 kts | 295° |
| 2026-04-30 15:08 | 43.80898 | 28.25486 | 32215 ft | 365 kts | 295° |
| 2026-04-30 15:09 | 43.87452 | 28.10506 | 32213 ft | 365 kts | 294° |
| 2026-04-30 15:10 | 43.92702 | 27.98441 | 32216 ft | 366 kts | 294° |
| 2026-04-30 15:11 | 44.00566 | 27.80325 | 32230 ft | 366 kts | 294° |
| 2026-04-30 15:13 | 44.07110 | 27.65143 | 32233 ft | 367 kts | 294° |
| 2026-04-30 15:14 | 44.16255 | 27.43788 | 32236 ft | 368 kts | 293° |
| 2026-04-30 15:17 | 44.27991 | 27.16149 | 32263 ft | 369 kts | 293° |
| 2026-04-30 15:19 | 44.38394 | 26.91421 | 32275 ft | 370 kts | 293° |